createdAt,value
2022-10-25T00:01:47.120Z,100231.73
2022-10-25T00:06:53.970Z,100231.98
2022-10-25T00:09:26.652Z,100226.68
2022-10-25T00:11:57.539Z,100230.17
2022-10-25T00:14:30.028Z,100237.55
2022-10-25T00:17:02.311Z,100233.48
2022-10-25T00:19:34.662Z,100234.13
2022-10-25T00:22:06.488Z,100231.34
2022-10-25T00:24:38.582Z,100232.00
2022-10-25T00:27:10.129Z,100236.70
2022-10-25T00:29:41.820Z,100237.23
2022-10-25T00:32:14.728Z,100237.21
2022-10-25T00:34:45.518Z,100236.60
2022-10-25T00:37:17.935Z,100233.21
2022-10-25T00:39:50.147Z,100235.75
2022-10-25T00:42:25.708Z,100235.00
2022-10-25T00:44:59.045Z,100230.70
2022-10-25T00:47:46.701Z,100233.64
2022-10-25T00:50:46.564Z,100233.02
2022-10-25T00:53:23.075Z,100232.08
2022-10-25T00:56:04.705Z,100233.57
2022-10-25T00:58:40.131Z,100232.33
2022-10-25T01:01:14.717Z,100229.67
2022-10-25T01:03:51.247Z,100233.66
2022-10-25T01:06:28.187Z,100232.56
2022-10-25T01:09:02.023Z,100231.90
2022-10-25T01:11:36.175Z,100234.09
2022-10-25T01:14:12.242Z,100230.52
2022-10-25T01:16:52.790Z,100228.84
2022-10-25T01:20:08.008Z,100232.17
2022-10-25T01:22:44.170Z,100231.70
2022-10-25T01:25:50.652Z,100225.75
2022-10-25T01:28:33.595Z,100228.30
2022-10-25T01:31:26.837Z,100222.28
2022-10-25T01:34:04.734Z,100220.48
2022-10-25T01:36:46.958Z,100222.96
2022-10-25T01:39:26.116Z,100221.90
2022-10-25T01:42:06.360Z,100220.95
2022-10-25T01:44:45.761Z,100222.69
2022-10-25T01:47:23.216Z,100221.78
2022-10-25T01:50:02.752Z,100222.38
2022-10-25T01:52:34.743Z,100226.14
2022-10-25T01:55:11.246Z,100219.52
2022-10-25T02:00:55.339Z,100221.56
2022-10-25T02:03:34.988Z,100219.16
2022-10-25T02:06:20.183Z,100219.17
2022-10-25T02:09:00.545Z,100225.54
2022-10-25T02:11:34.386Z,100225.35
2022-10-25T02:14:16.466Z,100231.96
2022-10-25T02:16:52.345Z,100232.34
2022-10-25T02:19:29.187Z,100237.88
2022-10-25T02:22:02.968Z,100239.27
2022-10-25T02:24:36.971Z,100237.27
2022-10-25T02:27:12.166Z,100235.71
2022-10-25T02:29:45.735Z,100235.98
2022-10-25T02:32:18.238Z,100235.10
2022-10-25T02:34:52.246Z,100232.22
2022-10-25T02:37:23.903Z,100232.39
2022-10-25T02:39:56.590Z,100232.41
2022-10-25T02:42:28.738Z,100228.67
2022-10-25T02:45:00.885Z,100228.86
2022-10-25T02:47:33.426Z,100224.02
2022-10-25T02:50:06.110Z,100220.75
2022-10-25T02:52:36.594Z,100220.45
2022-10-25T02:55:09.691Z,100217.36
2022-10-25T02:57:41.589Z,100220.45
2022-10-25T03:00:16.407Z,100219.07
2022-10-25T03:02:48.335Z,100216.23
2022-10-25T03:05:20.418Z,100217.70
2022-10-25T03:07:52.078Z,100224.14
2022-10-25T03:10:23.629Z,100225.68
2022-10-25T03:12:55.266Z,100227.02
2022-10-25T03:15:27.456Z,100227.36
2022-10-25T03:17:59.342Z,100228.46
2022-10-25T03:20:31.182Z,100227.95
2022-10-25T03:23:02.834Z,100228.52
2022-10-25T03:25:34.649Z,100231.16
2022-10-25T03:28:06.803Z,100229.54
2022-10-25T03:30:38.871Z,100231.17
2022-10-25T03:33:10.730Z,100231.75
2022-10-25T03:35:42.723Z,100239.94
2022-10-25T03:38:14.789Z,100238.79
2022-10-25T03:40:47.054Z,100232.73
2022-10-25T03:43:18.809Z,100231.68
2022-10-25T03:45:50.418Z,100231.33
2022-10-25T03:48:22.779Z,100234.02
2022-10-25T03:50:56.130Z,100234.95
2022-10-25T03:53:28.124Z,100236.77
2022-10-25T03:56:00.548Z,100234.34
2022-10-25T03:58:32.519Z,100234.33
2022-10-25T04:01:04.757Z,100229.73
2022-10-25T04:03:37.048Z,100233.50
2022-10-25T04:06:09.268Z,100228.83
2022-10-25T04:08:41.046Z,100225.61
2022-10-25T04:11:12.763Z,100223.13
2022-10-25T04:13:44.848Z,100227.63
2022-10-25T04:16:19.100Z,100228.59
2022-10-25T04:18:53.439Z,100230.21
2022-10-25T04:21:25.606Z,100230.20
2022-10-25T04:23:59.341Z,100231.08
2022-10-25T04:26:36.644Z,100229.39
2022-10-25T04:29:09.098Z,100230.22
2022-10-25T04:31:40.722Z,100232.08
2022-10-25T04:34:12.439Z,100233.27
2022-10-25T04:36:44.161Z,100226.34
2022-10-25T04:39:16.232Z,100226.82
2022-10-25T04:41:48.113Z,100230.39
2022-10-25T04:44:20.350Z,100227.33
2022-10-25T04:46:52.508Z,100230.70
2022-10-25T04:49:24.267Z,100231.08
2022-10-25T04:51:56.132Z,100227.83
2022-10-25T04:54:27.882Z,100227.84
2022-10-25T04:56:59.511Z,100229.77
2022-10-25T04:59:31.355Z,100228.41
2022-10-25T05:02:03.345Z,100230.02
2022-10-25T05:04:35.233Z,100229.59
2022-10-25T05:07:07.061Z,100230.11
2022-10-25T05:09:38.657Z,100225.73
2022-10-25T05:12:10.388Z,100223.48
2022-10-25T05:14:42.054Z,100224.27
2022-10-25T05:17:13.663Z,100228.55
2022-10-25T05:19:45.349Z,100227.21
2022-10-25T05:22:17.003Z,100218.17
2022-10-25T05:24:48.673Z,100226.96
2022-10-25T05:27:21.292Z,100232.30
2022-10-25T05:29:51.591Z,100238.20
2022-10-25T05:32:23.277Z,100242.16
2022-10-25T05:34:54.983Z,100242.48
2022-10-25T05:37:26.714Z,100249.98
2022-10-25T05:39:58.538Z,100256.33
2022-10-25T05:42:31.074Z,100255.30
2022-10-25T05:45:02.693Z,100260.93
2022-10-25T05:47:34.336Z,100262.08
2022-10-25T05:50:06.197Z,100265.83
2022-10-25T05:52:37.753Z,100264.76
2022-10-25T05:55:11.026Z,100268.27
2022-10-25T05:57:42.650Z,100269.67
2022-10-25T06:00:16.364Z,100268.50
2022-10-25T06:02:48.241Z,100271.65
2022-10-25T06:05:21.823Z,100274.58
2022-10-25T06:07:53.434Z,100276.48
2022-10-25T06:10:25.134Z,100278.54
2022-10-25T06:12:57.690Z,100272.83
2022-10-25T06:15:29.474Z,100280.23
2022-10-25T06:18:01.210Z,100284.89
2022-10-25T06:20:33.656Z,100288.92
2022-10-25T06:23:08.041Z,100292.98
2022-10-25T06:25:42.410Z,100299.58
2022-10-25T06:28:14.051Z,100301.74
2022-10-25T06:30:45.629Z,100300.13
2022-10-25T06:33:17.309Z,100301.27
2022-10-25T06:35:49.179Z,100304.46
2022-10-25T06:38:20.867Z,100302.83
2022-10-25T06:40:52.620Z,100307.76
2022-10-25T06:43:24.177Z,100313.18
2022-10-25T06:45:55.881Z,100319.34
2022-10-25T06:48:27.559Z,100327.02
2022-10-25T06:51:10.662Z,100326.75
2022-10-25T06:53:43.939Z,100324.36
2022-10-25T06:56:16.185Z,100332.58
2022-10-25T06:58:47.905Z,100332.36
2022-10-25T07:01:21.369Z,100338.16
2022-10-25T07:03:55.179Z,100336.54
2022-10-25T07:06:29.566Z,100338.27
2022-10-25T07:09:01.537Z,100339.94
2022-10-25T07:11:35.461Z,100346.00
2022-10-25T07:14:07.113Z,100346.67
2022-10-25T07:16:39.263Z,100346.64
2022-10-25T07:19:10.994Z,100344.56
2022-10-25T07:21:42.816Z,100348.18
2022-10-25T07:24:14.695Z,100349.78
2022-10-25T07:26:46.629Z,100352.36
2022-10-25T07:29:18.899Z,100351.58
2022-10-25T07:31:50.787Z,100352.00
2022-10-25T07:34:22.762Z,100348.65
2022-10-25T07:36:54.697Z,100350.87
2022-10-25T07:39:26.306Z,100351.59
2022-10-25T07:41:58.004Z,100352.39
2022-10-25T07:44:29.824Z,100355.20
2022-10-25T07:47:01.654Z,100349.70
2022-10-25T07:49:33.296Z,100349.58
2022-10-25T07:52:05.082Z,100349.23
2022-10-25T07:54:36.914Z,100351.43
2022-10-25T07:57:10.805Z,100360.07
2022-10-25T07:59:43.006Z,100363.57
2022-10-25T08:02:15.822Z,100367.20
2022-10-25T08:04:49.052Z,100372.23
2022-10-25T08:07:21.991Z,100375.65
2022-10-25T08:09:53.905Z,100373.33
2022-10-25T08:12:25.602Z,100369.01
2022-10-25T08:14:57.335Z,100373.31
2022-10-25T08:17:29.168Z,100379.73
2022-10-25T08:20:01.030Z,100380.50
2022-10-25T08:22:32.871Z,100372.42
2022-10-25T08:25:05.322Z,100369.50
2022-10-25T08:27:35.640Z,100369.84
2022-10-25T08:30:09.087Z,100369.63
2022-10-25T08:32:41.472Z,100375.19
2022-10-25T08:35:13.533Z,100382.90
2022-10-25T08:37:45.608Z,100386.61
2022-10-25T08:40:22.124Z,100388.61
2022-10-25T08:43:05.322Z,100393.27
2022-10-25T08:45:42.107Z,100389.92
2022-10-25T08:48:18.920Z,100385.44
2022-10-25T08:50:54.716Z,100382.20
2022-10-25T08:53:33.208Z,100381.98
2022-10-25T08:56:16.953Z,100388.03
2022-10-25T08:58:55.055Z,100388.00
2022-10-25T09:01:30.746Z,100383.39
2022-10-25T09:04:02.819Z,100384.95
2022-10-25T09:06:41.055Z,100388.09
2022-10-25T09:09:25.206Z,100382.98
2022-10-25T09:12:08.690Z,100387.64
2022-10-25T09:14:47.287Z,100385.83
2022-10-25T09:17:23.017Z,100388.15
2022-10-25T09:20:06.639Z,100391.80
2022-10-25T09:22:46.733Z,100389.19
2022-10-25T09:25:26.873Z,100390.56
2022-10-25T09:28:05.081Z,100396.59
2022-10-25T09:30:42.231Z,100399.48
2022-10-25T09:35:56.295Z,100401.67
2022-10-25T09:38:35.025Z,100405.84
2022-10-25T09:41:15.626Z,100405.61
2022-10-25T09:43:53.875Z,100406.41
2022-10-25T09:46:31.351Z,100407.04
2022-10-25T09:49:09.002Z,100412.15
2022-10-25T09:51:57.642Z,100414.30
2022-10-25T09:54:36.553Z,100410.26
2022-10-25T09:57:08.907Z,100412.16
2022-10-25T09:59:40.702Z,100417.73
2022-10-25T10:02:24.457Z,100419.82
2022-10-25T10:04:57.174Z,100418.82
2022-10-25T10:07:34.076Z,100420.13
2022-10-25T10:10:10.962Z,100419.47
2022-10-25T10:12:49.311Z,100419.76
2022-10-25T10:15:27.198Z,100418.64
2022-10-25T10:18:27.334Z,100423.03
2022-10-25T10:21:02.321Z,100424.52
2022-10-25T10:23:37.764Z,100422.07
2022-10-25T10:26:21.307Z,100422.95
2022-10-25T10:29:03.366Z,100422.27
2022-10-25T10:31:40.763Z,100426.23
2022-10-25T10:34:28.857Z,100421.40
2022-10-25T10:37:18.972Z,100421.65
2022-10-25T10:39:55.660Z,100417.63
2022-10-25T10:42:36.326Z,100421.96
2022-10-25T10:45:18.850Z,100422.14
2022-10-25T10:47:59.371Z,100419.94
2022-10-25T10:50:32.876Z,100422.91
2022-10-25T10:53:06.994Z,100425.05
2022-10-25T10:55:40.663Z,100425.78
2022-10-25T10:58:18.105Z,100426.08
2022-10-25T11:00:54.731Z,100425.29
2022-10-25T11:03:59.181Z,100424.31
2022-10-25T11:06:35.980Z,100429.20
2022-10-25T11:09:17.903Z,100427.33
2022-10-25T11:12:08.342Z,100423.23
2022-10-25T11:14:40.530Z,100421.02
2022-10-25T11:17:16.930Z,100422.19
2022-10-25T11:20:08.498Z,100422.48
2022-10-25T11:22:55.045Z,100427.80
2022-10-25T11:25:34.994Z,100430.70
2022-10-25T11:28:23.286Z,100430.88
2022-10-25T11:31:02.614Z,100432.95
2022-10-25T11:33:48.877Z,100432.41
2022-10-25T11:36:36.475Z,100433.63
2022-10-25T11:39:23.687Z,100435.66
2022-10-25T11:42:02.227Z,100438.29
2022-10-25T11:44:50.204Z,100441.58
2022-10-25T11:47:34.946Z,100443.17
2022-10-25T11:50:22.417Z,100444.31
2022-10-25T11:53:16.935Z,100447.99
2022-10-25T11:55:54.193Z,100451.92
2022-10-25T11:58:37.942Z,100445.54
2022-10-25T12:01:20.869Z,100446.48
2022-10-25T12:03:57.894Z,100448.24
2022-10-25T12:06:36.893Z,100449.39
2022-10-25T12:09:17.913Z,100441.60
2022-10-25T12:11:53.470Z,100448.88
2022-10-25T12:14:33.714Z,100447.76
2022-10-25T12:17:08.748Z,100446.20
2022-10-25T12:19:46.360Z,100445.22
2022-10-25T12:22:21.438Z,100439.37
2022-10-25T12:24:57.641Z,100442.06
2022-10-25T12:27:31.543Z,100444.97
2022-10-25T12:30:06.278Z,100445.17
2022-10-25T12:32:42.946Z,100450.23
2022-10-25T12:35:23.487Z,100452.32
2022-10-25T12:37:59.882Z,100451.08
2022-10-25T12:40:34.605Z,100456.74
2022-10-25T12:43:17.883Z,100455.27
2022-10-25T12:46:01.898Z,100452.75
2022-10-25T12:48:59.054Z,100453.78
2022-10-25T12:51:47.261Z,100453.05
2022-10-25T12:54:36.197Z,100456.51
2022-10-25T12:57:21.802Z,100450.51
2022-10-25T13:00:03.544Z,100453.79
2022-10-25T13:03:01.258Z,100453.55
2022-10-25T13:06:06.275Z,100456.61
2022-10-25T13:08:41.198Z,100458.79
2022-10-25T13:11:13.597Z,100460.84
2022-10-25T13:13:51.057Z,100463.92
2022-10-25T13:16:31.867Z,100466.93
2022-10-25T13:19:54.030Z,100462.77
2022-10-25T13:22:39.348Z,100469.06
2022-10-25T13:25:40.511Z,100472.14
2022-10-25T13:28:36.007Z,100471.40
2022-10-25T13:31:48.983Z,100473.89
2022-10-25T13:34:35.426Z,100470.77
2022-10-25T13:37:30.901Z,100468.86
2022-10-25T13:40:04.744Z,100467.06
2022-10-25T13:42:38.557Z,100475.38
2022-10-25T13:45:20.629Z,100479.15
2022-10-25T13:47:56.178Z,100477.98
2022-10-25T13:50:32.423Z,100478.97
2022-10-25T13:53:09.490Z,100478.31
2022-10-25T13:55:59.265Z,100478.77
2022-10-25T13:58:49.830Z,100482.66
2022-10-25T14:01:56.546Z,100487.29
2022-10-25T14:04:42.802Z,100492.18
2022-10-25T14:07:49.417Z,100493.05
2022-10-25T14:10:27.840Z,100496.84
2022-10-25T14:13:15.737Z,100501.20
2022-10-25T14:15:58.305Z,100498.89
2022-10-25T14:18:35.020Z,100497.60
2022-10-25T14:21:09.929Z,100494.77
2022-10-25T14:23:43.292Z,100496.16
2022-10-25T14:26:21.409Z,100491.77
2022-10-25T14:28:53.319Z,100494.73
2022-10-25T14:31:26.850Z,100496.34
2022-10-25T14:34:00.124Z,100492.52
2022-10-25T14:36:33.871Z,100491.20
2022-10-25T14:39:17.214Z,100494.21
2022-10-25T14:41:55.553Z,100495.56
2022-10-25T14:44:29.770Z,100500.43
2022-10-25T14:47:02.878Z,100501.20
2022-10-25T14:49:34.683Z,100503.30
2022-10-25T14:52:09.523Z,100504.86
2022-10-25T14:54:43.043Z,100505.52
2022-10-25T14:57:17.564Z,100510.92
2022-10-25T14:59:52.294Z,100512.45
2022-10-25T15:02:28.579Z,100512.25
2022-10-25T15:05:02.608Z,100514.77
2022-10-25T15:07:41.529Z,100511.52
2022-10-25T15:10:43.938Z,100517.96
2022-10-25T15:13:22.028Z,100518.19
2022-10-25T15:15:54.796Z,100518.86
2022-10-25T15:18:36.109Z,100510.77
2022-10-25T15:21:15.414Z,100512.34
2022-10-25T15:24:13.977Z,100514.44
2022-10-25T15:27:00.346Z,100516.58
2022-10-25T15:32:27.629Z,100524.29
2022-10-25T15:35:02.601Z,100521.27
2022-10-25T15:37:34.867Z,100525.95
2022-10-25T15:40:18.007Z,100524.95
2022-10-25T15:42:50.162Z,100527.79
2022-10-25T15:45:22.977Z,100522.59
2022-10-25T15:47:57.434Z,100521.81
2022-10-25T15:50:29.462Z,100521.29
2022-10-25T15:53:03.129Z,100519.30
2022-10-25T15:55:34.958Z,100526.00
2022-10-25T15:58:09.777Z,100534.96
2022-10-25T16:00:43.450Z,100538.80
2022-10-25T16:03:21.796Z,100543.31
2022-10-25T16:05:54.788Z,100543.79
2022-10-25T16:08:26.970Z,100543.33
2022-10-25T16:10:59.663Z,100541.55
2022-10-25T16:13:34.228Z,100544.41
2022-10-25T16:16:21.767Z,100540.30
2022-10-25T16:19:01.177Z,100549.09
2022-10-25T16:21:35.416Z,100548.45
2022-10-25T16:24:07.331Z,100549.62
2022-10-25T16:26:42.858Z,100547.95
2022-10-25T16:29:20.288Z,100551.68
2022-10-25T16:31:52.456Z,100558.11
2022-10-25T16:34:24.222Z,100560.83
2022-10-25T16:36:56.396Z,100564.59
2022-10-25T16:39:28.142Z,100564.84
2022-10-25T16:41:59.759Z,100564.77
2022-10-25T16:44:31.770Z,100569.61
2022-10-25T16:47:03.785Z,100570.69
2022-10-25T16:49:35.388Z,100571.11
2022-10-25T16:52:07.232Z,100573.07
2022-10-25T16:54:38.952Z,100573.36
2022-10-25T16:57:11.269Z,100574.63
2022-10-25T16:59:43.291Z,100579.47
2022-10-25T17:02:21.673Z,100581.60
2022-10-25T17:04:54.526Z,100580.24
2022-10-25T17:07:24.801Z,100585.06
2022-10-25T17:09:57.056Z,100586.08
2022-10-25T17:12:28.782Z,100584.52
2022-10-25T17:15:00.797Z,100590.81
2022-10-25T17:17:33.402Z,100592.61
2022-10-25T17:20:06.425Z,100590.42
2022-10-25T17:22:38.540Z,100588.79
2022-10-25T17:25:12.100Z,100595.83
2022-10-25T17:27:48.043Z,100597.52
2022-10-25T17:30:21.182Z,100599.98
2022-10-25T17:32:53.200Z,100600.41
2022-10-25T17:35:29.758Z,100608.06
2022-10-25T17:38:02.964Z,100608.00
2022-10-25T17:40:35.379Z,100609.88
2022-10-25T17:43:07.510Z,100613.94
2022-10-25T17:45:39.178Z,100613.44
2022-10-25T17:48:11.612Z,100610.33
2022-10-25T17:50:45.926Z,100615.41
2022-10-25T17:53:18.874Z,100630.38
2022-10-25T17:55:51.682Z,100628.16
2022-10-25T17:58:23.619Z,100625.15
2022-10-25T18:00:55.564Z,100626.69
2022-10-25T18:03:28.620Z,100630.36
2022-10-25T18:06:03.587Z,100625.51
2022-10-25T18:08:38.350Z,100622.59
2022-10-25T18:11:15.664Z,100620.93
2022-10-25T18:13:47.989Z,100626.27
2022-10-25T18:16:21.888Z,100629.75
2022-10-25T18:18:53.658Z,100630.27
2022-10-25T18:21:26.561Z,100631.00
2022-10-25T18:24:00.898Z,100632.42
2022-10-25T18:26:34.192Z,100628.59
2022-10-25T18:29:06.068Z,100629.70
2022-10-25T18:31:38.559Z,100630.63
2022-10-25T18:34:11.006Z,100633.89
2022-10-25T18:36:43.654Z,100633.33
2022-10-25T18:39:15.537Z,100631.52
2022-10-25T18:41:48.077Z,100633.09
2022-10-25T18:44:18.753Z,100633.54
2022-10-25T18:46:50.948Z,100634.38
2022-10-25T18:49:23.440Z,100633.78
2022-10-25T18:51:57.162Z,100635.23
2022-10-25T18:54:29.607Z,100638.67
2022-10-25T18:57:01.763Z,100642.98
2022-10-25T18:59:34.271Z,100645.81
2022-10-25T19:02:08.863Z,100644.34
2022-10-25T19:04:42.510Z,100648.48
2022-10-25T19:07:15.641Z,100652.52
2022-10-25T19:09:48.010Z,100651.11
2022-10-25T19:12:20.766Z,100649.52
2022-10-25T19:14:52.894Z,100648.27
2022-10-25T19:17:25.450Z,100655.48
2022-10-25T19:19:56.388Z,100661.05
2022-10-25T19:22:28.610Z,100663.69
2022-10-25T19:25:01.847Z,100661.61
2022-10-25T19:27:35.109Z,100663.45
2022-10-25T19:30:09.471Z,100664.82
2022-10-25T19:32:41.770Z,100668.21
2022-10-25T19:35:14.417Z,100672.20
2022-10-25T19:37:47.413Z,100672.13
2022-10-25T19:40:20.274Z,100679.36
2022-10-25T19:42:53.386Z,100681.27
2022-10-25T19:45:27.549Z,100678.86
2022-10-25T19:48:01.327Z,100680.66
2022-10-25T19:50:34.918Z,100677.46
2022-10-25T19:53:06.752Z,100679.10
2022-10-25T19:55:39.155Z,100677.03
2022-10-25T19:58:12.645Z,100681.41
2022-10-25T20:00:44.729Z,100683.96
2022-10-25T20:03:17.295Z,100686.56
2022-10-25T20:05:49.298Z,100686.23
2022-10-25T20:08:21.396Z,100685.41
2022-10-25T20:10:53.750Z,100689.37
2022-10-25T20:13:26.066Z,100685.92
2022-10-25T20:15:59.494Z,100687.41
2022-10-25T20:18:36.329Z,100686.80
2022-10-25T20:21:13.829Z,100688.14
2022-10-25T20:23:51.127Z,100687.05
2022-10-25T20:26:25.665Z,100690.30
2022-10-25T20:29:00.145Z,100695.86
2022-10-25T20:31:36.024Z,100691.14
2022-10-25T20:34:09.516Z,100694.42
2022-10-25T20:36:43.488Z,100696.54
2022-10-25T20:39:18.049Z,100700.50
2022-10-25T20:41:51.366Z,100705.77
2022-10-25T20:44:23.471Z,100705.42
2022-10-25T20:46:56.299Z,100705.69
2022-10-25T20:49:26.757Z,100707.23
2022-10-25T20:51:59.310Z,100707.33
2022-10-25T20:54:31.916Z,100710.38
2022-10-25T20:57:04.479Z,100709.29
2022-10-25T20:59:36.414Z,100704.15
2022-10-25T21:02:10.071Z,100708.56
2022-10-25T21:04:49.570Z,100707.16
2022-10-25T21:07:25.499Z,100708.59
2022-10-25T21:09:57.415Z,100703.97
2022-10-25T21:12:29.258Z,100709.81
2022-10-25T21:15:01.226Z,100711.14
2022-10-25T21:17:33.109Z,100707.90
2022-10-25T21:20:05.258Z,100716.39
2022-10-25T21:22:41.099Z,100719.48
2022-10-25T21:25:13.513Z,100720.93
2022-10-25T21:27:45.439Z,100726.20
2022-10-25T21:30:17.480Z,100724.39
2022-10-25T21:32:49.164Z,100723.52
2022-10-25T21:35:21.229Z,100728.54
2022-10-25T21:37:53.263Z,100724.17
2022-10-25T21:40:25.393Z,100721.91
2022-10-25T21:42:59.795Z,100720.41
2022-10-25T21:45:31.737Z,100714.03
2022-10-25T21:48:03.527Z,100720.71
2022-10-25T21:50:35.308Z,100722.29
2022-10-25T21:53:07.267Z,100723.99
2022-10-25T21:55:39.775Z,100727.41
2022-10-25T21:58:12.190Z,100726.58
2022-10-25T22:00:45.436Z,100725.67
2022-10-25T22:03:17.333Z,100728.67
2022-10-25T22:05:49.197Z,100729.66
2022-10-25T22:08:22.059Z,100732.54
2022-10-25T22:11:02.403Z,100729.14
2022-10-25T22:13:34.342Z,100726.27
2022-10-25T22:16:08.704Z,100726.75
2022-10-25T22:18:40.492Z,100729.32
2022-10-25T22:21:14.352Z,100729.31
2022-10-25T22:23:46.068Z,100732.78
2022-10-25T22:26:19.968Z,100733.67
2022-10-25T22:28:56.419Z,100735.55
2022-10-25T22:31:29.486Z,100735.86
2022-10-25T22:34:03.689Z,100730.29
2022-10-25T22:36:38.009Z,100724.86
2022-10-25T22:39:10.813Z,100731.84
2022-10-25T22:41:42.575Z,100733.06
2022-10-25T22:44:14.412Z,100730.75
2022-10-25T22:46:46.183Z,100735.25
2022-10-25T22:49:19.306Z,100732.80
2022-10-25T22:51:51.023Z,100731.29
2022-10-25T22:54:22.737Z,100734.47
2022-10-25T22:56:54.491Z,100735.11
2022-10-25T22:59:26.210Z,100730.56
2022-10-25T23:01:58.291Z,100734.33
2022-10-25T23:04:30.231Z,100737.46
2022-10-25T23:07:01.983Z,100742.35
2022-10-25T23:09:33.802Z,100746.80
2022-10-25T23:12:07.396Z,100748.48
2022-10-25T23:14:39.929Z,100749.48
2022-10-25T23:17:12.670Z,100749.66
2022-10-25T23:19:45.430Z,100751.44
2022-10-25T23:22:17.834Z,100749.63
2022-10-25T23:24:49.898Z,100750.09
2022-10-25T23:27:21.537Z,100754.29
2022-10-25T23:29:53.321Z,100757.01
2022-10-25T23:32:25.132Z,100758.59
2022-10-25T23:34:57.245Z,100756.58
2022-10-25T23:37:29.220Z,100760.68
2022-10-25T23:40:00.875Z,100758.13
2022-10-25T23:42:32.873Z,100758.80
2022-10-25T23:45:05.446Z,100762.58
2022-10-25T23:47:37.341Z,100762.76
2022-10-25T23:50:10.631Z,100757.05
2022-10-25T23:52:42.471Z,100756.02
2022-10-25T23:55:14.186Z,100764.61
2022-10-25T23:57:46.075Z,100764.10
